Rene — UBCJ8 — position and weather

sailwx.info

Track history (hours):
 
Tides and Currents Weather Stations Pressure Air Temp Water Temp Dewpoint Dewpoint Depression Visibility Wind Speed Wind Dir Waves Ship Positions

Rene

Last reported at 2018-Jul-19 03:15 UTC. Time now 2018-Jul-20 14:02 UTC.
Position N 44°26' E 038°05'.

Length 78 m; draft 4.7 m.

Type: Ship. MMSI: 273353480.

Date/timePositionNaut miles runAvg speedWind from/ knotsBaromVisibWave heightAir tempDewpointWater temp
2018-Jul-19 03:15N 44°26' E 038°05'2 4.5
2018-Jul-19 02:53N 44°27' E 038°03'2 4.5
2018-Jul-19 02:23N 44°28' E 038°00'2 4.5
2018-Jul-19 02:00N 44°29' E 037°58'2 4.6
2018-Jul-19 01:29N 44°30' E 037°55'2 4.4
2018-Jul-19 01:00N 44°31' E 037°52'2 4.8
2018-Jul-19 00:30N 44°32' E 037°49'2 4.8
2018-Jul-19 00:00N 44°33' E 037°46'3 5.3
2018-Jul-18 23:31N 44°33' E 037°42'2 4.8
2018-Jul-18 23:01N 44°33' E 037°39'3 5.0
2018-Jul-18 22:30N 44°33' E 037°35'5 4.2
2018-Jul-18 21:26N 44°36' E 037°30'53 3.3
2018-Jul-18 05:25N 45°11' E 036°33'0 0.1
2018-Jul-18 04:56N 45°11' E 036°33'0 0.9
2018-Jul-18 04:30N 45°10' E 036°33'1 0.0
2018-Jul-16 12:32N 45°10' E 036°32'0 0.0
2018-Jul-16 10:44N 45°10' E 036°32'51 1.3
2018-Jul-14 19:24N 44°37' E 037°27'3 7.0
2018-Jul-14 19:00N 44°35' E 037°30'3 6.7
2018-Jul-14 18:30N 44°34' E 037°34'3 6.6
2018-Jul-14 18:00N 44°33' E 037°38'3 6.6
2018-Jul-14 17:30N 44°33' E 037°43'6 6.5
2018-Jul-14 16:39N 44°32' E 037°50'1 6.6
2018-Jul-14 16:30N 44°32' E 037°52'3 6.5
2018-Jul-14 16:00N 44°30' E 037°56'3 6.3
2018-Jul-14 15:30N 44°28' E 037°59'3 5.8
2018-Jul-14 15:00N 44°27' E 038°03'3 6.0
2018-Jul-14 14:30N 44°25' E 038°06'6 6.3
2018-Jul-14 13:30N 44°22' E 038°14'9 6.4
2018-Jul-14 12:09N 44°18' E 038°25'1 6.0
2018-Jul-14 12:00N 44°18' E 038°26'3 5.9
2018-Jul-14 11:30N 44°16' E 038°29'3 6.2
2018-Jul-14 11:00N 44°15' E 038°33'5 6.2
2018-Jul-14 10:16N 44°12' E 038°39'2 6.2
2018-Jul-14 10:00N 44°12' E 038°41'3 6.3
2018-Jul-14 09:30N 44°10' E 038°45'3 6.6
2018-Jul-14 09:00N 44°08' E 038°49'3 6.7
2018-Jul-14 08:30N 44°07' E 038°53'3 6.7
2018-Jul-14 08:00N 44°06' E 038°57'3 6.4
2018-Jul-14 07:30N 44°05' E 039°01'1 1.4
2018-Jul-14 06:59N 44°05' E 039°02'1 2.4
2018-Jul-14 06:30N 44°04' E 039°03'1 2.0
2018-Jul-14 05:59N 44°03' E 039°05'0 0.3
2018-Jul-14 05:29N 44°03' E 039°05'0 0.1
2018-Jul-14 04:59N 44°03' E 039°05'0 0.1
2018-Jul-14 04:29N 44°03' E 039°05'0 0.2
2018-Jul-14 03:59N 44°03' E 039°05'0 0.0
2018-Jul-14 03:29N 44°03' E 039°05'0 0.0
2018-Jul-14 02:59N 44°03' E 039°05'0 0.0
2018-Jul-14 02:29N 44°03' E 039°05'0 0.0
2018-Jul-14 01:59N 44°03' E 039°05'0 0.0
2018-Jul-14 01:29N 44°03' E 039°05'0 0.1
2018-Jul-14 00:59N 44°03' E 039°05'0 0.1
2018-Jul-14 00:29N 44°03' E 039°05'0 0.0
2018-Jul-13 23:59N 44°03' E 039°05'0 0.1
2018-Jul-13 23:29N 44°03' E 039°05'0 0.1
2018-Jul-13 22:59N 44°03' E 039°05'0 0.0
2018-Jul-13 22:29N 44°03' E 039°05'0 0.0
2018-Jul-13 21:59N 44°03' E 039°05'0 0.0
2018-Jul-13 21:29N 44°03' E 039°05'0 0.0
2018-Jul-13 20:59N 44°03' E 039°05'0 0.0
2018-Jul-13 20:26N 44°03' E 039°05'0 0.0
2018-Jul-13 19:59N 44°03' E 039°05'0 0.0
2018-Jul-13 19:29N 44°03' E 039°05'0 0.0
2018-Jul-13 19:00N 44°03' E 039°05'1 2.6
2018-Jul-13 18:31N 44°04' E 039°03'1 1.9
2018-Jul-13 18:00N 44°05' E 039°02'0 0.0
2018-Jul-13 17:29N 44°05' E 039°02'0 0.0
2018-Jul-13 16:59N 44°05' E 039°02'0 0.0
2018-Jul-13 16:29N 44°05' E 039°02'0 0.0
2018-Jul-13 15:59N 44°05' E 039°02'0 0.0
2018-Jul-13 15:29N 44°05' E 039°02'0 0.0
2018-Jul-13 14:59N 44°05' E 039°02'0 0.0
2018-Jul-13 14:29N 44°05' E 039°02'0 0.0
2018-Jul-13 13:29N 44°05' E 039°02'0 0.0
2018-Jul-13 12:59N 44°05' E 039°02'0 0.0
2018-Jul-13 12:29N 44°05' E 039°02'0 0.0
2018-Jul-13 11:59N 44°05' E 039°02'0 0.0
2018-Jul-13 11:29N 44°05' E 039°02'0 0.0
2018-Jul-13 10:53N 44°05' E 039°02'0 0.0
2018-Jul-13 10:29N 44°05' E 039°02'0 0.0
2018-Jul-13 09:59N 44°05' E 039°02'0 0.0
2018-Jul-13 09:29N 44°05' E 039°02'0 0.0
2018-Jul-13 08:59N 44°05' E 039°02'0 0.0
2018-Jul-13 08:29N 44°05' E 039°02'0 0.0
2018-Jul-13 07:59N 44°05' E 039°02'0 0.0
2018-Jul-13 07:29N 44°05' E 039°02'0 0.0
2018-Jul-13 06:59N 44°05' E 039°02'0 0.0
2018-Jul-13 06:29N 44°05' E 039°02'0 0.0
2018-Jul-13 05:59N 44°05' E 039°02'0 0.0
2018-Jul-13 05:29N 44°05' E 039°02'0 0.0
2018-Jul-13 04:59N 44°05' E 039°02'0 0.0
2018-Jul-13 04:29N 44°05' E 039°02'0 0.0
2018-Jul-13 03:59N 44°05' E 039°02'0 0.0
2018-Jul-13 03:29N 44°05' E 039°02'0 0.0
2018-Jul-13 02:59N 44°05' E 039°02'0 0.0
2018-Jul-13 02:29N 44°05' E 039°02'0 0.0
2018-Jul-13 01:59N 44°05' E 039°02'0 0.0
2018-Jul-13 01:29N 44°05' E 039°02'0 0.0
2018-Jul-13 00:59N 44°05' E 039°02'0 0.0
2018-Jul-13 00:29N 44°05' E 039°02'0 0.0
2018-Jul-12 23:59N 44°05' E 039°02'0 0.0
2018-Jul-12 23:29N 44°05' E 039°02'0 0.0
2018-Jul-12 22:59N 44°05' E 039°02'0 0.0
2018-Jul-12 22:29N 44°05' E 039°02'0 0.0
2018-Jul-12 21:59N 44°05' E 039°02'0 0.0
2018-Jul-12 21:29N 44°05' E 039°02'0 0.0
2018-Jul-12 20:59N 44°05' E 039°02'0 0.0
2018-Jul-12 20:29N 44°05' E 039°02'0 0.0
2018-Jul-12 19:59N 44°05' E 039°02'0 0.0
2018-Jul-12 19:29N 44°05' E 039°02'0 0.0
2018-Jul-12 18:56N 44°05' E 039°02'0 0.0
2018-Jul-12 18:29N 44°05' E 039°02'0 0.0
2018-Jul-12 17:59N 44°05' E 039°02'0 0.1
2018-Jul-12 17:29N 44°05' E 039°02'0 0.0
2018-Jul-12 16:59N 44°05' E 039°02'0 0.0
2018-Jul-12 16:29N 44°05' E 039°02'0 0.0
2018-Jul-12 15:59N 44°05' E 039°02'0 0.0
2018-Jul-12 15:29N 44°05' E 039°02'0 0.0
2018-Jul-12 14:59N 44°05' E 039°02'0 0.0
2018-Jul-12 14:29N 44°05' E 039°02'0 0.0
2018-Jul-12 13:59N 44°05' E 039°02'0 0.0
2018-Jul-12 13:29N 44°05' E 039°02'0 0.0
2018-Jul-12 12:59N 44°05' E 039°02'0 0.0
2018-Jul-12 12:26N 44°05' E 039°02'0 0.0
2018-Jul-12 11:59N 44°05' E 039°02'0 0.0
2018-Jul-12 11:29N 44°05' E 039°02'0 0.0
2018-Jul-12 10:59N 44°05' E 039°02'0 0.0
2018-Jul-12 10:29N 44°05' E 039°02'0 0.0
2018-Jul-12 09:59N 44°05' E 039°02'0 0.0
2018-Jul-12 09:29N 44°05' E 039°02'0 0.0
2018-Jul-12 08:59N 44°05' E 039°02'0 0.0
2018-Jul-12 08:29N 44°05' E 039°02'0 0.0
2018-Jul-12 07:59N 44°05' E 039°02'0 0.0
2018-Jul-12 07:26N 44°05' E 039°02'0 0.0
2018-Jul-12 06:59N 44°05' E 039°02'0 0.0
2018-Jul-12 06:29N 44°05' E 039°02'0 0.0
2018-Jul-12 05:59N 44°05' E 039°02'0 0.0
2018-Jul-12 05:29N 44°05' E 039°02'0 0.0
2018-Jul-12 04:59N 44°05' E 039°02'0 0.0
2018-Jul-12 04:29N 44°05' E 039°02'0 0.0
2018-Jul-12 03:59N 44°05' E 039°02'0 0.0
2018-Jul-12 03:29N 44°05' E 039°02'0 0.0
2018-Jul-12 02:59N 44°05' E 039°02'0 0.0
2018-Jul-12 02:29N 44°05' E 039°02'0 0.0
2018-Jul-12 01:59N 44°05' E 039°02'0 0.0
2018-Jul-12 01:29N 44°05' E 039°02'0 0.0
2018-Jul-12 00:59N 44°05' E 039°02'0 0.0
2018-Jul-12 00:29N 44°05' E 039°02'0 0.0
2018-Jul-11 23:59N 44°05' E 039°02'0 0.0
2018-Jul-11 23:29N 44°05' E 039°02'0 0.0
2018-Jul-11 22:59N 44°05' E 039°02'0 0.0
2018-Jul-11 22:29N 44°05' E 039°02'0 0.0
2018-Jul-11 21:59N 44°05' E 039°02'0 0.0
2018-Jul-11 21:29N 44°05' E 039°02'0 0.0
2018-Jul-11 20:59N 44°05' E 039°02'0 0.0
2018-Jul-11 20:29N 44°05' E 039°02'0 0.0
2018-Jul-11 19:59N 44°05' E 039°02'0 0.0
2018-Jul-11 19:29N 44°05' E 039°02'0 0.0
2018-Jul-11 18:59N 44°05' E 039°02'0 0.0
2018-Jul-11 18:29N 44°05' E 039°02'0 0.0
2018-Jul-11 17:59N 44°05' E 039°02'0 0.0
2018-Jul-11 17:23N 44°05' E 039°02'0 0.0
2018-Jul-11 16:59N 44°05' E 039°02'0 0.0
2018-Jul-11 16:29N 44°05' E 039°02'0 0.0
2018-Jul-11 15:59N 44°05' E 039°02'0 0.0
2018-Jul-11 15:29N 44°05' E 039°02'0 0.0
2018-Jul-11 14:59N 44°05' E 039°02'0 0.0
2018-Jul-11 14:29N 44°05' E 039°02'0 0.0
2018-Jul-11 13:59N 44°05' E 039°02'0 0.0
2018-Jul-11 13:29N 44°05' E 039°02'0 0.0
2018-Jul-11 12:59N 44°05' E 039°02'0 0.0
2018-Jul-11 12:29N 44°05' E 039°02'0 0.0
2018-Jul-11 11:59N 44°05' E 039°02'0 0.0
2018-Jul-11 11:29N 44°05' E 039°02'0 0.0
2018-Jul-11 10:59N 44°05' E 039°02'0 0.0
2018-Jul-11 10:29N 44°05' E 039°02'0 0.0
2018-Jul-11 09:59N 44°05' E 039°02'0 0.0
2018-Jul-11 09:29N 44°05' E 039°02'0 0.0
2018-Jul-11 08:59N 44°05' E 039°02'0 0.0
2018-Jul-11 08:29N 44°05' E 039°02'0 0.0
2018-Jul-11 07:59N 44°05' E 039°02'0 0.0
2018-Jul-11 07:29N 44°05' E 039°02'0 0.0
2018-Jul-11 06:59N 44°05' E 039°02'0 0.0
2018-Jul-11 06:29N 44°05' E 039°02'0 0.0
2018-Jul-11 05:59N 44°05' E 039°02'0 0.0
2018-Jul-11 05:29N 44°05' E 039°02'0 0.0
2018-Jul-11 04:59N 44°05' E 039°02'0 0.0
2018-Jul-11 04:29N 44°05' E 039°02'0 0.0
2018-Jul-11 03:59N 44°05' E 039°02'0 0.0
2018-Jul-11 03:29N 44°05' E 039°02'0 0.0
2018-Jul-11 02:59N 44°05' E 039°02'0 0.0
2018-Jul-11 02:29N 44°05' E 039°02'0 0.0
2018-Jul-11 01:59N 44°05' E 039°02'0 0.0
2018-Jul-11 01:29N 44°05' E 039°02'0 0.0
2018-Jul-11 00:59N 44°05' E 039°02'0 0.0
2018-Jul-11 00:29N 44°05' E 039°02'0 0.0
2018-Jul-10 23:59N 44°05' E 039°02'0 0.0
2018-Jul-10 23:29N 44°05' E 039°02'0 0.0
2018-Jul-10 22:59N 44°05' E 039°02'0 0.1
2018-Jul-10 22:29N 44°05' E 039°02'0 0.0
2018-Jul-10 21:59N 44°05' E 039°02'0 0.0
2018-Jul-10 21:29N 44°05' E 039°02'0 0.0
2018-Jul-10 20:59N 44°05' E 039°02'0 0.0
2018-Jul-10 20:29N 44°05' E 039°02'0 0.0
2018-Jul-10 19:59N 44°05' E 039°02'0 0.0
2018-Jul-10 19:29N 44°05' E 039°02'0 0.0
2018-Jul-10 18:53N 44°05' E 039°02'0 0.0
2018-Jul-10 18:29N 44°05' E 039°02'0 0.0
2018-Jul-10 17:59N 44°05' E 039°02'0 0.0
2018-Jul-10 17:29N 44°05' E 039°02'0 0.0
2018-Jul-10 16:59N 44°05' E 039°02'0 0.0
2018-Jul-10 16:29N 44°05' E 039°02'0 0.0
2018-Jul-10 15:59N 44°05' E 039°02'0 0.1
2018-Jul-10 15:29N 44°05' E 039°02'0 0.0
2018-Jul-10 14:59N 44°05' E 039°02'0 0.0
2018-Jul-10 14:29N 44°05' E 039°02'0 0.0
2018-Jul-10 13:59N 44°05' E 039°02'0 0.0
2018-Jul-10 13:29N 44°05' E 039°02'0 0.0
2018-Jul-10 12:59N 44°05' E 039°02'0 0.0
2018-Jul-10 12:29N 44°05' E 039°02'0 0.0
2018-Jul-10 11:59N 44°05' E 039°02'0 0.0
2018-Jul-10 11:29N 44°05' E 039°02'0 0.0
2018-Jul-10 10:59N 44°05' E 039°02'0 0.0
2018-Jul-10 10:29N 44°05' E 039°02'0 0.0
2018-Jul-10 09:59N 44°05' E 039°02'0 0.0
2018-Jul-10 09:29N 44°05' E 039°02'0 0.0
2018-Jul-10 08:59N 44°05' E 039°02'0 0.0
2018-Jul-10 08:26N 44°05' E 039°02'0 0.0
2018-Jul-10 07:59N 44°05' E 039°02'0 0.0
2018-Jul-10 07:29N 44°05' E 039°02'0 0.0
2018-Jul-10 06:59N 44°05' E 039°02'0 0.0
2018-Jul-10 06:29N 44°05' E 039°02'0 0.0
2018-Jul-10 05:59N 44°05' E 039°02'0 0.0
2018-Jul-10 05:29N 44°05' E 039°02'0 0.0
2018-Jul-10 04:59N 44°05' E 039°02'0 0.0
2018-Jul-10 04:29N 44°05' E 039°02'0 0.0
2018-Jul-10 03:59N 44°05' E 039°02'0 0.0
2018-Jul-10 03:29N 44°05' E 039°02'0 0.0
2018-Jul-10 02:59N 44°05' E 039°02'0 0.0
2018-Jul-10 02:29N 44°05' E 039°02'0 0.0
2018-Jul-10 01:59N 44°05' E 039°02'0 0.0
2018-Jul-10 01:29N 44°05' E 039°02'0 0.0
2018-Jul-10 00:59N 44°05' E 039°02'0 0.0
2018-Jul-10 00:26N 44°05' E 039°02'0 0.0
2018-Jul-09 23:59N 44°05' E 039°02'0 0.0
2018-Jul-09 23:29N 44°05' E 039°02'0 0.0
2018-Jul-09 22:59N 44°05' E 039°02'0 0.1
2018-Jul-09 22:29N 44°05' E 039°02'0 0.0
2018-Jul-09 21:59N 44°05' E 039°02'0 0.0
2018-Jul-09 21:29N 44°05' E 039°02'0 0.0
2018-Jul-09 20:59N 44°05' E 039°02'0 0.0
2018-Jul-09 20:29N 44°05' E 039°02'0 0.0
2018-Jul-09 19:59N 44°05' E 039°02'0 0.1
2018-Jul-09 19:29N 44°05' E 039°02'0 0.1
2018-Jul-09 18:59N 44°05' E 039°02'0 0.0
2018-Jul-09 18:29N 44°05' E 039°02'0 0.1
2018-Jul-09 17:59N 44°05' E 039°02'0 0.0
2018-Jul-09 17:29N 44°05' E 039°02'0 0.0
2018-Jul-09 16:59N 44°05' E 039°02'0 0.1
2018-Jul-09 16:29N 44°05' E 039°02'0 0.0
2018-Jul-09 15:59N 44°05' E 039°02'0 0.0
2018-Jul-09 15:29N 44°05' E 039°02'0 0.0
2018-Jul-09 14:59N 44°05' E 039°02'0 0.0
2018-Jul-09 14:26N 44°05' E 039°02'0 0.0
2018-Jul-09 13:59N 44°05' E 039°02'0 0.0
2018-Jul-09 13:29N 44°05' E 039°02'0 0.0
2018-Jul-09 12:59N 44°05' E 039°02'0 0.0
2018-Jul-09 12:29N 44°05' E 039°02'0 0.0
2018-Jul-09 11:59N 44°05' E 039°02'0 0.0
2018-Jul-09 11:29N 44°05' E 039°02'0 0.0
2018-Jul-09 10:59N 44°05' E 039°02'0 0.0
2018-Jul-09 10:29N 44°05' E 039°02'0 0.0
2018-Jul-09 09:59N 44°05' E 039°02'0 0.0
2018-Jul-09 09:29N 44°05' E 039°02'0 0.0
2018-Jul-09 08:59N 44°05' E 039°02'0 0.0
2018-Jul-09 08:29N 44°05' E 039°02'0 0.0
2018-Jul-09 07:59N 44°05' E 039°02'0 0.0
2018-Jul-09 07:29N 44°05' E 039°02'0 0.0
2018-Jul-09 06:59N 44°05' E 039°02'0 0.0
2018-Jul-09 06:29N 44°05' E 039°02'0 0.0
2018-Jul-09 05:59N 44°05' E 039°02'0 0.0
2018-Jul-09 05:29N 44°05' E 039°02'0 0.0
2018-Jul-09 04:59N 44°05' E 039°02'0 0.0
2018-Jul-09 04:29N 44°05' E 039°02'0 0.0
2018-Jul-09 03:59N 44°05' E 039°02'0 0.0
2018-Jul-09 03:29N 44°05' E 039°02'  
Track history (hours):
 
Tides and Currents Weather Stations Pressure Air Temp Water Temp Dewpoint Dewpoint Depression Visibility Wind Speed Wind Dir Waves Ship Positions

Rene

Last reported at 2018-Jul-19 03:15 UTC. Time now 2018-Jul-20 14:02 UTC.
Position N 44°26' E 038°05'.

Length 78 m; draft 4.7 m.

Type: Ship. MMSI: 273353480.

Date/timePositionNaut miles runAvg speedWind from/ knotsBaromVisibWave heightAir tempDewpointWater temp
2018-Jul-19 03:15N 44°26' E 038°05'2 4.5
2018-Jul-19 02:53N 44°27' E 038°03'2 4.5
2018-Jul-19 02:23N 44°28' E 038°00'2 4.5
2018-Jul-19 02:00N 44°29' E 037°58'2 4.6
2018-Jul-19 01:29N 44°30' E 037°55'2 4.4
2018-Jul-19 01:00N 44°31' E 037°52'2 4.8
2018-Jul-19 00:30N 44°32' E 037°49'2 4.8
2018-Jul-19 00:00N 44°33' E 037°46'3 5.3
2018-Jul-18 23:31N 44°33' E 037°42'2 4.8
2018-Jul-18 23:01N 44°33' E 037°39'3 5.0
2018-Jul-18 22:30N 44°33' E 037°35'5 4.2
2018-Jul-18 21:26N 44°36' E 037°30'53 3.3
2018-Jul-18 05:25N 45°11' E 036°33'0 0.1
2018-Jul-18 04:56N 45°11' E 036°33'0 0.9
2018-Jul-18 04:30N 45°10' E 036°33'1 0.0
2018-Jul-16 12:32N 45°10' E 036°32'0 0.0
2018-Jul-16 10:44N 45°10' E 036°32'51 1.3
2018-Jul-14 19:24N 44°37' E 037°27'3 7.0
2018-Jul-14 19:00N 44°35' E 037°30'3 6.7
2018-Jul-14 18:30N 44°34' E 037°34'3 6.6
2018-Jul-14 18:00N 44°33' E 037°38'3 6.6
2018-Jul-14 17:30N 44°33' E 037°43'6 6.5
2018-Jul-14 16:39N 44°32' E 037°50'1 6.6
2018-Jul-14 16:30N 44°32' E 037°52'3 6.5
2018-Jul-14 16:00N 44°30' E 037°56'3 6.3
2018-Jul-14 15:30N 44°28' E 037°59'3 5.8
2018-Jul-14 15:00N 44°27' E 038°03'3 6.0
2018-Jul-14 14:30N 44°25' E 038°06'6 6.3
2018-Jul-14 13:30N 44°22' E 038°14'9 6.4
2018-Jul-14 12:09N 44°18' E 038°25'1 6.0
2018-Jul-14 12:00N 44°18' E 038°26'3 5.9
2018-Jul-14 11:30N 44°16' E 038°29'3 6.2
2018-Jul-14 11:00N 44°15' E 038°33'5 6.2
2018-Jul-14 10:16N 44°12' E 038°39'2 6.2
2018-Jul-14 10:00N 44°12' E 038°41'3 6.3
2018-Jul-14 09:30N 44°10' E 038°45'3 6.6
2018-Jul-14 09:00N 44°08' E 038°49'3 6.7
2018-Jul-14 08:30N 44°07' E 038°53'3 6.7
2018-Jul-14 08:00N 44°06' E 038°57'3 6.4
2018-Jul-14 07:30N 44°05' E 039°01'1 1.4
2018-Jul-14 06:59N 44°05' E 039°02'1 2.4
2018-Jul-14 06:30N 44°04' E 039°03'1 2.0
2018-Jul-14 05:59N 44°03' E 039°05'0 0.3
2018-Jul-14 05:29N 44°03' E 039°05'0 0.1
2018-Jul-14 04:59N 44°03' E 039°05'0 0.1
2018-Jul-14 04:29N 44°03' E 039°05'0 0.2
2018-Jul-14 03:59N 44°03' E 039°05'0 0.0
2018-Jul-14 03:29N 44°03' E 039°05'0 0.0
2018-Jul-14 02:59N 44°03' E 039°05'0 0.0
2018-Jul-14 02:29N 44°03' E 039°05'0 0.0
2018-Jul-14 01:59N 44°03' E 039°05'0 0.0
2018-Jul-14 01:29N 44°03' E 039°05'0 0.1
2018-Jul-14 00:59N 44°03' E 039°05'0 0.1
2018-Jul-14 00:29N 44°03' E 039°05'0 0.0
2018-Jul-13 23:59N 44°03' E 039°05'0 0.1
2018-Jul-13 23:29N 44°03' E 039°05'0 0.1
2018-Jul-13 22:59N 44°03' E 039°05'0 0.0
2018-Jul-13 22:29N 44°03' E 039°05'0 0.0
2018-Jul-13 21:59N 44°03' E 039°05'0 0.0
2018-Jul-13 21:29N 44°03' E 039°05'0 0.0
2018-Jul-13 20:59N 44°03' E 039°05'0 0.0
2018-Jul-13 20:26N 44°03' E 039°05'0 0.0
2018-Jul-13 19:59N 44°03' E 039°05'0 0.0
2018-Jul-13 19:29N 44°03' E 039°05'0 0.0
2018-Jul-13 19:00N 44°03' E 039°05'1 2.6
2018-Jul-13 18:31N 44°04' E 039°03'1 1.9
2018-Jul-13 18:00N 44°05' E 039°02'0 0.0
2018-Jul-13 17:29N 44°05' E 039°02'0 0.0
2018-Jul-13 16:59N 44°05' E 039°02'0 0.0
2018-Jul-13 16:29N 44°05' E 039°02'0 0.0
2018-Jul-13 15:59N 44°05' E 039°02'0 0.0
2018-Jul-13 15:29N 44°05' E 039°02'0 0.0
2018-Jul-13 14:59N 44°05' E 039°02'0 0.0
2018-Jul-13 14:29N 44°05' E 039°02'0 0.0
2018-Jul-13 13:29N 44°05' E 039°02'0 0.0
2018-Jul-13 12:59N 44°05' E 039°02'0 0.0
2018-Jul-13 12:29N 44°05' E 039°02'0 0.0
2018-Jul-13 11:59N 44°05' E 039°02'0 0.0
2018-Jul-13 11:29N 44°05' E 039°02'0 0.0
2018-Jul-13 10:53N 44°05' E 039°02'0 0.0
2018-Jul-13 10:29N 44°05' E 039°02'0 0.0
2018-Jul-13 09:59N 44°05' E 039°02'0 0.0
2018-Jul-13 09:29N 44°05' E 039°02'0 0.0
2018-Jul-13 08:59N 44°05' E 039°02'0 0.0
2018-Jul-13 08:29N 44°05' E 039°02'0 0.0
2018-Jul-13 07:59N 44°05' E 039°02'0 0.0
2018-Jul-13 07:29N 44°05' E 039°02'0 0.0
2018-Jul-13 06:59N 44°05' E 039°02'0 0.0
2018-Jul-13 06:29N 44°05' E 039°02'0 0.0
2018-Jul-13 05:59N 44°05' E 039°02'0 0.0
2018-Jul-13 05:29N 44°05' E 039°02'0 0.0
2018-Jul-13 04:59N 44°05' E 039°02'0 0.0
2018-Jul-13 04:29N 44°05' E 039°02'0 0.0
2018-Jul-13 03:59N 44°05' E 039°02'0 0.0
2018-Jul-13 03:29N 44°05' E 039°02'0 0.0
2018-Jul-13 02:59N 44°05' E 039°02'0 0.0
2018-Jul-13 02:29N 44°05' E 039°02'0 0.0
2018-Jul-13 01:59N 44°05' E 039°02'0 0.0
2018-Jul-13 01:29N 44°05' E 039°02'0 0.0
2018-Jul-13 00:59N 44°05' E 039°02'0 0.0
2018-Jul-13 00:29N 44°05' E 039°02'0 0.0
2018-Jul-12 23:59N 44°05' E 039°02'0 0.0
2018-Jul-12 23:29N 44°05' E 039°02'0 0.0
2018-Jul-12 22:59N 44°05' E 039°02'0 0.0
2018-Jul-12 22:29N 44°05' E 039°02'0 0.0
2018-Jul-12 21:59N 44°05' E 039°02'0 0.0
2018-Jul-12 21:29N 44°05' E 039°02'0 0.0
2018-Jul-12 20:59N 44°05' E 039°02'0 0.0
2018-Jul-12 20:29N 44°05' E 039°02'0 0.0
2018-Jul-12 19:59N 44°05' E 039°02'0 0.0
2018-Jul-12 19:29N 44°05' E 039°02'0 0.0
2018-Jul-12 18:56N 44°05' E 039°02'0 0.0
2018-Jul-12 18:29N 44°05' E 039°02'0 0.0
2018-Jul-12 17:59N 44°05' E 039°02'0 0.1
2018-Jul-12 17:29N 44°05' E 039°02'0 0.0
2018-Jul-12 16:59N 44°05' E 039°02'0 0.0
2018-Jul-12 16:29N 44°05' E 039°02'0 0.0
2018-Jul-12 15:59N 44°05' E 039°02'0 0.0
2018-Jul-12 15:29N 44°05' E 039°02'0 0.0
2018-Jul-12 14:59N 44°05' E 039°02'0 0.0
2018-Jul-12 14:29N 44°05' E 039°02'0 0.0
2018-Jul-12 13:59N 44°05' E 039°02'0 0.0
2018-Jul-12 13:29N 44°05' E 039°02'0 0.0
2018-Jul-12 12:59N 44°05' E 039°02'0 0.0
2018-Jul-12 12:26N 44°05' E 039°02'0 0.0
2018-Jul-12 11:59N 44°05' E 039°02'0 0.0
2018-Jul-12 11:29N 44°05' E 039°02'0 0.0
2018-Jul-12 10:59N 44°05' E 039°02'0 0.0
2018-Jul-12 10:29N 44°05' E 039°02'0 0.0
2018-Jul-12 09:59N 44°05' E 039°02'0 0.0
2018-Jul-12 09:29N 44°05' E 039°02'0 0.0
2018-Jul-12 08:59N 44°05' E 039°02'0 0.0
2018-Jul-12 08:29N 44°05' E 039°02'0 0.0
2018-Jul-12 07:59N 44°05' E 039°02'0 0.0
2018-Jul-12 07:26N 44°05' E 039°02'0 0.0
2018-Jul-12 06:59N 44°05' E 039°02'0 0.0
2018-Jul-12 06:29N 44°05' E 039°02'0 0.0
2018-Jul-12 05:59N 44°05' E 039°02'0 0.0
2018-Jul-12 05:29N 44°05' E 039°02'0 0.0
2018-Jul-12 04:59N 44°05' E 039°02'0 0.0
2018-Jul-12 04:29N 44°05' E 039°02'0 0.0
2018-Jul-12 03:59N 44°05' E 039°02'0 0.0
2018-Jul-12 03:29N 44°05' E 039°02'0 0.0
2018-Jul-12 02:59N 44°05' E 039°02'0 0.0
2018-Jul-12 02:29N 44°05' E 039°02'0 0.0
2018-Jul-12 01:59N 44°05' E 039°02'0 0.0
2018-Jul-12 01:29N 44°05' E 039°02'0 0.0
2018-Jul-12 00:59N 44°05' E 039°02'0 0.0
2018-Jul-12 00:29N 44°05' E 039°02'0 0.0
2018-Jul-11 23:59N 44°05' E 039°02'0 0.0
2018-Jul-11 23:29N 44°05' E 039°02'0 0.0
2018-Jul-11 22:59N 44°05' E 039°02'0 0.0
2018-Jul-11 22:29N 44°05' E 039°02'0 0.0
2018-Jul-11 21:59N 44°05' E 039°02'0 0.0
2018-Jul-11 21:29N 44°05' E 039°02'0 0.0
2018-Jul-11 20:59N 44°05' E 039°02'0 0.0
2018-Jul-11 20:29N 44°05' E 039°02'0 0.0
2018-Jul-11 19:59N 44°05' E 039°02'0 0.0
2018-Jul-11 19:29N 44°05' E 039°02'0 0.0
2018-Jul-11 18:59N 44°05' E 039°02'0 0.0
2018-Jul-11 18:29N 44°05' E 039°02'0 0.0
2018-Jul-11 17:59N 44°05' E 039°02'0 0.0
2018-Jul-11 17:23N 44°05' E 039°02'0 0.0
2018-Jul-11 16:59N 44°05' E 039°02'0 0.0
2018-Jul-11 16:29N 44°05' E 039°02'0 0.0
2018-Jul-11 15:59N 44°05' E 039°02'0 0.0
2018-Jul-11 15:29N 44°05' E 039°02'0 0.0
2018-Jul-11 14:59N 44°05' E 039°02'0 0.0
2018-Jul-11 14:29N 44°05' E 039°02'0 0.0
2018-Jul-11 13:59N 44°05' E 039°02'0 0.0
2018-Jul-11 13:29N 44°05' E 039°02'0 0.0
2018-Jul-11 12:59N 44°05' E 039°02'0 0.0
2018-Jul-11 12:29N 44°05' E 039°02'0 0.0
2018-Jul-11 11:59N 44°05' E 039°02'0 0.0
2018-Jul-11 11:29N 44°05' E 039°02'0 0.0
2018-Jul-11 10:59N 44°05' E 039°02'0 0.0
2018-Jul-11 10:29N 44°05' E 039°02'0 0.0
2018-Jul-11 09:59N 44°05' E 039°02'0 0.0
2018-Jul-11 09:29N 44°05' E 039°02'0 0.0
2018-Jul-11 08:59N 44°05' E 039°02'0 0.0
2018-Jul-11 08:29N 44°05' E 039°02'0 0.0
2018-Jul-11 07:59N 44°05' E 039°02'0 0.0
2018-Jul-11 07:29N 44°05' E 039°02'0 0.0
2018-Jul-11 06:59N 44°05' E 039°02'0 0.0
2018-Jul-11 06:29N 44°05' E 039°02'0 0.0
2018-Jul-11 05:59N 44°05' E 039°02'0 0.0
2018-Jul-11 05:29N 44°05' E 039°02'0 0.0
2018-Jul-11 04:59N 44°05' E 039°02'0 0.0
2018-Jul-11 04:29N 44°05' E 039°02'0 0.0
2018-Jul-11 03:59N 44°05' E 039°02'0 0.0
2018-Jul-11 03:29N 44°05' E 039°02'0 0.0
2018-Jul-11 02:59N 44°05' E 039°02'0 0.0
2018-Jul-11 02:29N 44°05' E 039°02'0 0.0
2018-Jul-11 01:59N 44°05' E 039°02'0 0.0
2018-Jul-11 01:29N 44°05' E 039°02'0 0.0
2018-Jul-11 00:59N 44°05' E 039°02'0 0.0
2018-Jul-11 00:29N 44°05' E 039°02'0 0.0
2018-Jul-10 23:59N 44°05' E 039°02'0 0.0
2018-Jul-10 23:29N 44°05' E 039°02'0 0.0
2018-Jul-10 22:59N 44°05' E 039°02'0 0.1
2018-Jul-10 22:29N 44°05' E 039°02'0 0.0
2018-Jul-10 21:59N 44°05' E 039°02'0 0.0
2018-Jul-10 21:29N 44°05' E 039°02'0 0.0
2018-Jul-10 20:59N 44°05' E 039°02'0 0.0
2018-Jul-10 20:29N 44°05' E 039°02'0 0.0
2018-Jul-10 19:59N 44°05' E 039°02'0 0.0
2018-Jul-10 19:29N 44°05' E 039°02'0 0.0
2018-Jul-10 18:53N 44°05' E 039°02'0 0.0
2018-Jul-10 18:29N 44°05' E 039°02'0 0.0
2018-Jul-10 17:59N 44°05' E 039°02'0 0.0
2018-Jul-10 17:29N 44°05' E 039°02'0 0.0
2018-Jul-10 16:59N 44°05' E 039°02'0 0.0
2018-Jul-10 16:29N 44°05' E 039°02'0 0.0
2018-Jul-10 15:59N 44°05' E 039°02'0 0.1
2018-Jul-10 15:29N 44°05' E 039°02'0 0.0
2018-Jul-10 14:59N 44°05' E 039°02'0 0.0
2018-Jul-10 14:29N 44°05' E 039°02'0 0.0
2018-Jul-10 13:59N 44°05' E 039°02'0 0.0
2018-Jul-10 13:29N 44°05' E 039°02'0 0.0
2018-Jul-10 12:59N 44°05' E 039°02'0 0.0
2018-Jul-10 12:29N 44°05' E 039°02'0 0.0
2018-Jul-10 11:59N 44°05' E 039°02'0 0.0
2018-Jul-10 11:29N 44°05' E 039°02'0 0.0
2018-Jul-10 10:59N 44°05' E 039°02'0 0.0
2018-Jul-10 10:29N 44°05' E 039°02'0 0.0
2018-Jul-10 09:59N 44°05' E 039°02'0 0.0
2018-Jul-10 09:29N 44°05' E 039°02'0 0.0
2018-Jul-10 08:59N 44°05' E 039°02'0 0.0
2018-Jul-10 08:26N 44°05' E 039°02'0 0.0
2018-Jul-10 07:59N 44°05' E 039°02'0 0.0
2018-Jul-10 07:29N 44°05' E 039°02'0 0.0
2018-Jul-10 06:59N 44°05' E 039°02'0 0.0
2018-Jul-10 06:29N 44°05' E 039°02'0 0.0
2018-Jul-10 05:59N 44°05' E 039°02'0 0.0
2018-Jul-10 05:29N 44°05' E 039°02'0 0.0
2018-Jul-10 04:59N 44°05' E 039°02'0 0.0
2018-Jul-10 04:29N 44°05' E 039°02'0 0.0
2018-Jul-10 03:59N 44°05' E 039°02'0 0.0
2018-Jul-10 03:29N 44°05' E 039°02'0 0.0
2018-Jul-10 02:59N 44°05' E 039°02'0 0.0
2018-Jul-10 02:29N 44°05' E 039°02'0 0.0
2018-Jul-10 01:59N 44°05' E 039°02'0 0.0
2018-Jul-10 01:29N 44°05' E 039°02'0 0.0
2018-Jul-10 00:59N 44°05' E 039°02'0 0.0
2018-Jul-10 00:26N 44°05' E 039°02'0 0.0
2018-Jul-09 23:59N 44°05' E 039°02'0 0.0
2018-Jul-09 23:29N 44°05' E 039°02'0 0.0
2018-Jul-09 22:59N 44°05' E 039°02'0 0.1
2018-Jul-09 22:29N 44°05' E 039°02'0 0.0
2018-Jul-09 21:59N 44°05' E 039°02'0 0.0
2018-Jul-09 21:29N 44°05' E 039°02'0 0.0
2018-Jul-09 20:59N 44°05' E 039°02'0 0.0
2018-Jul-09 20:29N 44°05' E 039°02'0 0.0
2018-Jul-09 19:59N 44°05' E 039°02'0 0.1
2018-Jul-09 19:29N 44°05' E 039°02'0 0.1
2018-Jul-09 18:59N 44°05' E 039°02'0 0.0
2018-Jul-09 18:29N 44°05' E 039°02'0 0.1
2018-Jul-09 17:59N 44°05' E 039°02'0 0.0
2018-Jul-09 17:29N 44°05' E 039°02'0 0.0
2018-Jul-09 16:59N 44°05' E 039°02'0 0.1
2018-Jul-09 16:29N 44°05' E 039°02'0 0.0
2018-Jul-09 15:59N 44°05' E 039°02'0 0.0
2018-Jul-09 15:29N 44°05' E 039°02'0 0.0
2018-Jul-09 14:59N 44°05' E 039°02'0 0.0
2018-Jul-09 14:26N 44°05' E 039°02'0 0.0
2018-Jul-09 13:59N 44°05' E 039°02'0 0.0
2018-Jul-09 13:29N 44°05' E 039°02'0 0.0
2018-Jul-09 12:59N 44°05' E 039°02'0 0.0
2018-Jul-09 12:29N 44°05' E 039°02'0 0.0
2018-Jul-09 11:59N 44°05' E 039°02'0 0.0
2018-Jul-09 11:29N 44°05' E 039°02'0 0.0
2018-Jul-09 10:59N 44°05' E 039°02'0 0.0
2018-Jul-09 10:29N 44°05' E 039°02'0 0.0
2018-Jul-09 09:59N 44°05' E 039°02'0 0.0
2018-Jul-09 09:29N 44°05' E 039°02'0 0.0
2018-Jul-09 08:59N 44°05' E 039°02'0 0.0
2018-Jul-09 08:29N 44°05' E 039°02'0 0.0
2018-Jul-09 07:59N 44°05' E 039°02'0 0.0
2018-Jul-09 07:29N 44°05' E 039°02'0 0.0
2018-Jul-09 06:59N 44°05' E 039°02'0 0.0
2018-Jul-09 06:29N 44°05' E 039°02'0 0.0
2018-Jul-09 05:59N 44°05' E 039°02'0 0.0
2018-Jul-09 05:29N 44°05' E 039°02'0 0.0
2018-Jul-09 04:59N 44°05' E 039°02'0 0.0
2018-Jul-09 04:29N 44°05' E 039°02'0 0.0
2018-Jul-09 03:59N 44°05' E 039°02'0 0.0
2018-Jul-09 03:29N 44°05' E 039°02'  

Dump ship's entire track history